createdAt,value
2023-04-27T00:01:14.279Z,98974.00
2023-04-27T00:03:41.831Z,98978.00
2023-04-27T00:06:09.260Z,98977.00
2023-04-27T00:08:36.287Z,98958.00
2023-04-27T00:11:03.368Z,98978.00
2023-04-27T00:13:30.337Z,98960.00
2023-04-27T00:15:57.349Z,98951.00
2023-04-27T00:18:24.328Z,98961.00
2023-04-27T00:20:51.239Z,98958.00
2023-04-27T00:23:18.254Z,98964.00
2023-04-27T00:25:45.142Z,98955.00
2023-04-27T00:28:12.097Z,98947.00
2023-04-27T00:30:39.034Z,98953.00
2023-04-27T00:33:06.052Z,98946.00
2023-04-27T00:35:33.554Z,98950.00
2023-04-27T00:38:00.478Z,98943.00
2023-04-27T00:40:27.445Z,98958.00
2023-04-27T00:42:54.374Z,98956.00
2023-04-27T00:45:21.388Z,98953.00
2023-04-27T00:47:48.366Z,98954.00
2023-04-27T00:50:15.402Z,98941.00
2023-04-27T00:52:42.460Z,98936.00
2023-04-27T00:55:09.508Z,98955.00
2023-04-27T00:57:36.469Z,98940.00
2023-04-27T01:00:04.034Z,98942.00
2023-04-27T01:02:31.175Z,98949.00
2023-04-27T01:04:58.163Z,98951.00
2023-04-27T01:07:26.164Z,98942.00
2023-04-27T01:09:53.225Z,98929.00
2023-04-27T01:12:20.182Z,98937.00
2023-04-27T01:14:47.170Z,98937.00
2023-04-27T01:17:14.132Z,98938.00
2023-04-27T01:19:41.283Z,98947.00
2023-04-27T01:22:08.258Z,98960.00
2023-04-27T01:24:35.305Z,98954.00
2023-04-27T01:27:02.381Z,98945.00
2023-04-27T01:29:29.285Z,98958.00
2023-04-27T01:31:56.267Z,98941.00
2023-04-27T01:34:23.265Z,98959.00
2023-04-27T01:36:50.234Z,98955.00
2023-04-27T01:39:17.151Z,98963.00
2023-04-27T01:41:44.029Z,98952.00
2023-04-27T01:44:10.962Z,98962.00
2023-04-27T01:46:37.993Z,98953.00
2023-04-27T01:49:04.993Z,98958.00
2023-04-27T01:51:31.918Z,98947.00
2023-04-27T01:53:59.017Z,98960.00
2023-04-27T01:56:25.957Z,98966.00
2023-04-27T01:58:55.964Z,98967.00
2023-04-27T02:01:23.054Z,98947.00
2023-04-27T02:03:50.190Z,98957.00
2023-04-27T02:06:17.349Z,98959.00
2023-04-27T02:08:44.247Z,98974.00
2023-04-27T02:11:11.190Z,98977.00
2023-04-27T02:13:38.103Z,98962.00
2023-04-27T02:16:05.391Z,98959.00
2023-04-27T02:18:32.762Z,98955.00
2023-04-27T02:20:59.799Z,98984.00
2023-04-27T02:23:26.745Z,98973.00
2023-04-27T02:25:56.231Z,98968.00
2023-04-27T02:28:23.148Z,98970.00
2023-04-27T02:30:50.722Z,98988.00
2023-04-27T02:33:17.576Z,98975.00
2023-04-27T02:35:44.582Z,98980.00
2023-04-27T02:38:11.502Z,98997.00
2023-04-27T02:40:38.407Z,98990.00
2023-04-27T02:43:05.316Z,99004.00
2023-04-27T02:45:32.286Z,98999.00
2023-04-27T02:47:59.328Z,98997.00
2023-04-27T02:50:26.393Z,98996.00
2023-04-27T02:52:55.696Z,98995.00
2023-04-27T02:55:22.698Z,99000.00
2023-04-27T02:57:49.732Z,98991.00
2023-04-27T03:00:16.937Z,98981.00
2023-04-27T03:02:44.209Z,98975.00
2023-04-27T03:05:11.309Z,98981.00
2023-04-27T03:07:38.281Z,98989.00
2023-04-27T03:10:05.745Z,98980.00
2023-04-27T03:12:32.796Z,98995.00
2023-04-27T03:14:59.669Z,98994.00
2023-04-27T03:17:27.264Z,99005.00
2023-04-27T03:19:54.277Z,98992.00
2023-04-27T03:22:21.239Z,99002.00
2023-04-27T03:24:48.223Z,99002.00
2023-04-27T03:27:15.231Z,98991.00
2023-04-27T03:29:42.156Z,99008.00
2023-04-27T03:32:09.245Z,99015.00
2023-04-27T03:34:36.185Z,99007.00
2023-04-27T03:37:03.111Z,99003.00
2023-04-27T03:39:30.011Z,99017.00
2023-04-27T03:41:56.868Z,99011.00
2023-04-27T03:44:23.949Z,99010.00
2023-04-27T03:46:50.890Z,99017.00
2023-04-27T03:49:17.878Z,99013.00
2023-04-27T03:51:45.123Z,99023.00
2023-04-27T03:54:11.975Z,99020.00
2023-04-27T03:56:38.896Z,99017.00
2023-04-27T03:59:05.804Z,99020.00
2023-04-27T04:01:32.775Z,99033.00
2023-04-27T04:03:59.865Z,99029.00
2023-04-27T04:06:26.992Z,99032.00
2023-04-27T04:08:54.603Z,99037.00
2023-04-27T04:11:21.528Z,99042.00
2023-04-27T04:13:48.459Z,99030.00
2023-04-27T04:16:15.437Z,99042.00
2023-04-27T04:18:42.510Z,99025.00
2023-04-27T04:21:10.050Z,99042.00
2023-04-27T04:23:37.650Z,99031.00
2023-04-27T04:26:04.715Z,99036.00
2023-04-27T04:28:31.750Z,99042.00
2023-04-27T04:30:58.705Z,99058.00
2023-04-27T04:33:25.790Z,99061.00
2023-04-27T04:35:52.740Z,99061.00
2023-04-27T04:38:19.655Z,99063.00
2023-04-27T04:40:46.612Z,99066.00
2023-04-27T04:43:13.704Z,99067.00
2023-04-27T04:45:40.686Z,99069.00
2023-04-27T04:48:07.717Z,99071.00
2023-04-27T04:50:34.623Z,99059.00
2023-04-27T04:53:01.510Z,99071.00
2023-04-27T04:55:28.456Z,99075.00
2023-04-27T04:57:55.376Z,99068.00
2023-04-27T05:00:22.647Z,99085.00
2023-04-27T05:02:49.716Z,99097.00
2023-04-27T05:05:16.861Z,99104.00
2023-04-27T05:07:43.809Z,99109.00
2023-04-27T05:10:10.879Z,99106.00
2023-04-27T05:12:37.767Z,99109.00
2023-04-27T05:15:05.646Z,99094.00
2023-04-27T05:17:32.572Z,99050.00
2023-04-27T05:19:59.598Z,98950.00
2023-04-27T05:22:26.539Z,98960.00
2023-04-27T05:24:53.467Z,98995.00
2023-04-27T05:27:20.445Z,98981.00
2023-04-27T05:29:47.313Z,99017.00
2023-04-27T05:32:14.265Z,99096.00
2023-04-27T05:34:41.185Z,99072.00
2023-04-27T05:37:08.075Z,99014.00
2023-04-27T05:39:35.072Z,99011.00
2023-04-27T05:42:02.010Z,99042.00
2023-04-27T05:44:28.935Z,99066.00
2023-04-27T05:46:55.891Z,99096.00
2023-04-27T05:49:23.380Z,99096.00
2023-04-27T05:51:50.254Z,99054.00
2023-04-27T05:54:17.217Z,99031.00
2023-04-27T05:56:44.103Z,98996.00
2023-04-27T05:59:11.047Z,98997.00
2023-04-27T06:01:38.036Z,98987.00
2023-04-27T06:04:05.139Z,99055.00
2023-04-27T06:06:32.497Z,98980.00
2023-04-27T06:08:59.455Z,99013.00
2023-04-27T06:11:26.417Z,99080.00
2023-04-27T06:13:53.269Z,99062.00
2023-04-27T06:16:20.187Z,99048.00
2023-04-27T06:18:48.506Z,99044.00
2023-04-27T06:21:15.523Z,99055.00
2023-04-27T06:23:42.408Z,99061.00
2023-04-27T06:26:09.411Z,99087.00
2023-04-27T06:28:36.340Z,99069.00
2023-04-27T06:31:03.461Z,99074.00
2023-04-27T06:33:30.368Z,99061.00
2023-04-27T06:35:57.342Z,99059.00
2023-04-27T06:38:24.312Z,99096.00
2023-04-27T06:40:51.981Z,99101.00
2023-04-27T06:43:19.144Z,99095.00
2023-04-27T06:45:46.162Z,99104.00
2023-04-27T06:48:13.249Z,99108.00
2023-04-27T06:50:40.202Z,99110.00
2023-04-27T06:53:07.186Z,99114.00
2023-04-27T06:55:34.601Z,99118.00
2023-04-27T06:58:02.167Z,99137.00
2023-04-27T07:00:29.361Z,99162.00
2023-04-27T07:02:56.365Z,99156.00
2023-04-27T07:05:23.249Z,99142.00
2023-04-27T07:07:50.239Z,99145.00
2023-04-27T07:10:17.209Z,99149.00
2023-04-27T07:12:44.158Z,99174.00
2023-04-27T07:15:11.144Z,99162.00
2023-04-27T07:17:38.312Z,99171.00
2023-04-27T07:20:06.701Z,99172.00
2023-04-27T07:22:34.074Z,99157.00
2023-04-27T07:25:01.025Z,99168.00
2023-04-27T07:27:27.938Z,99169.00
2023-04-27T07:29:54.904Z,99178.00
2023-04-27T07:32:22.204Z,99177.00
2023-04-27T07:34:53.499Z,99172.00
2023-04-27T07:37:22.245Z,99181.00
2023-04-27T07:39:50.371Z,99190.00
2023-04-27T07:42:17.781Z,99191.00
2023-04-27T07:44:44.840Z,99204.00
2023-04-27T07:47:11.770Z,99205.00
2023-04-27T07:49:38.734Z,99199.00
2023-04-27T07:52:05.853Z,99197.00
2023-04-27T07:54:32.885Z,99205.00
2023-04-27T07:56:59.789Z,99198.00
2023-04-27T07:59:29.558Z,99209.00
2023-04-27T08:02:07.135Z,99215.00
2023-04-27T08:04:43.639Z,99237.00
2023-04-27T08:07:11.257Z,99231.00
2023-04-27T08:09:38.632Z,99227.00
2023-04-27T08:12:05.708Z,99212.00
2023-04-27T08:14:35.148Z,99217.00
2023-04-27T08:17:02.378Z,99220.00
2023-04-27T08:19:29.522Z,99216.00
2023-04-27T08:21:56.555Z,99227.00
2023-04-27T08:24:23.459Z,99237.00
2023-04-27T08:26:50.388Z,99236.00
2023-04-27T08:29:26.865Z,99238.00
2023-04-27T08:31:56.932Z,99217.00
2023-04-27T08:34:24.273Z,99225.00
2023-04-27T08:36:51.211Z,99228.00
2023-04-27T08:39:18.488Z,99229.00
2023-04-27T08:41:45.570Z,99230.00
2023-04-27T08:44:12.530Z,99227.00
2023-04-27T08:46:39.682Z,99228.00
2023-04-27T08:49:06.657Z,99233.00
2023-04-27T08:51:33.898Z,99232.00
2023-04-27T08:54:00.816Z,99234.00
2023-04-27T08:56:29.303Z,99238.00
2023-04-27T08:58:57.205Z,99232.00
2023-04-27T09:01:24.862Z,99224.00
2023-04-27T09:04:01.586Z,99232.00
2023-04-27T09:06:33.774Z,99219.00
2023-04-27T09:09:00.951Z,99212.00
2023-04-27T09:11:32.899Z,99211.00
2023-04-27T09:14:00.906Z,99212.00
2023-04-27T09:16:29.114Z,99212.00
2023-04-27T09:18:57.346Z,99222.00
2023-04-27T09:21:28.421Z,99214.00
2023-04-27T09:23:55.764Z,99209.00
2023-04-27T09:26:27.387Z,99212.00
2023-04-27T09:28:55.817Z,99218.00
2023-04-27T09:31:30.760Z,99212.00
2023-04-27T09:33:57.797Z,99212.00
2023-04-27T09:36:25.077Z,99217.00
2023-04-27T09:38:52.291Z,99210.00
2023-04-27T09:41:19.713Z,99213.00
2023-04-27T09:43:47.008Z,99206.00
2023-04-27T09:46:14.614Z,99197.00
2023-04-27T09:48:41.709Z,99202.00
2023-04-27T09:51:08.938Z,99195.00
2023-04-27T09:53:40.612Z,99211.00
2023-04-27T09:56:16.736Z,99203.00
2023-04-27T09:59:17.007Z,99216.00
2023-04-27T10:01:50.127Z,99193.00
2023-04-27T10:04:59.969Z,99190.00
2023-04-27T10:07:27.373Z,99193.00
2023-04-27T10:09:54.379Z,99204.00
2023-04-27T10:12:33.871Z,99188.00
2023-04-27T10:15:10.989Z,99186.00
2023-04-27T10:17:38.136Z,99188.00
2023-04-27T10:20:08.517Z,99190.00
2023-04-27T10:22:49.058Z,99189.00
2023-04-27T10:25:28.355Z,99188.00
2023-04-27T10:28:00.394Z,99190.00
2023-04-27T10:30:35.596Z,99184.00
2023-04-27T10:33:08.765Z,99173.00
2023-04-27T10:35:36.955Z,99181.00
2023-04-27T10:38:11.516Z,99171.00
2023-04-27T10:40:38.734Z,99175.00
2023-04-27T10:43:13.527Z,99175.00
2023-04-27T10:45:41.435Z,99176.00
2023-04-27T10:48:08.575Z,99176.00
2023-04-27T10:50:35.665Z,99163.00
2023-04-27T10:53:06.882Z,99158.00
2023-04-27T10:55:34.384Z,99160.00
2023-04-27T10:58:01.631Z,99151.00
2023-04-27T11:00:41.508Z,99166.00
2023-04-27T11:03:10.760Z,99165.00
2023-04-27T11:05:37.725Z,99165.00
2023-04-27T11:08:09.699Z,99153.00
2023-04-27T11:10:48.748Z,99145.00
2023-04-27T11:13:17.666Z,99146.00
2023-04-27T11:16:05.774Z,99152.00
2023-04-27T11:18:32.802Z,99136.00
2023-04-27T11:21:10.344Z,99137.00
2023-04-27T11:23:37.505Z,99145.00
2023-04-27T11:26:11.189Z,99140.00
2023-04-27T11:28:38.442Z,99135.00
2023-04-27T11:31:06.041Z,99129.00
2023-04-27T11:33:33.112Z,99135.00
2023-04-27T11:36:00.162Z,99134.00
2023-04-27T11:38:32.630Z,99136.00
2023-04-27T11:41:06.819Z,99134.00
2023-04-27T11:43:33.906Z,99124.00
2023-04-27T11:46:07.106Z,99117.00
2023-04-27T11:48:36.754Z,99115.00
2023-04-27T11:51:03.982Z,99114.00
2023-04-27T11:53:40.085Z,99121.00
2023-04-27T11:56:09.167Z,99123.00
2023-04-27T11:58:36.947Z,99124.00
2023-04-27T12:01:04.742Z,99112.00
2023-04-27T12:03:32.086Z,99123.00
2023-04-27T12:06:11.465Z,99125.00
2023-04-27T12:08:43.460Z,99120.00
2023-04-27T12:11:10.304Z,99125.00
2023-04-27T12:13:37.171Z,99113.00
2023-04-27T12:16:04.384Z,99113.00
2023-04-27T12:18:31.381Z,99107.00
2023-04-27T12:21:02.817Z,99122.00
2023-04-27T12:23:30.268Z,99119.00
2023-04-27T12:25:57.200Z,99116.00
2023-04-27T12:28:24.079Z,99127.00
2023-04-27T12:30:51.095Z,99117.00
2023-04-27T12:33:18.092Z,99102.00
2023-04-27T12:35:45.034Z,99119.00
2023-04-27T12:38:11.945Z,99113.00
2023-04-27T12:40:38.852Z,99111.00
2023-04-27T12:43:07.041Z,99121.00
2023-04-27T12:45:34.004Z,99120.00
2023-04-27T12:48:03.404Z,99123.00
2023-04-27T12:50:31.919Z,99122.00
2023-04-27T12:52:58.966Z,99121.00
2023-04-27T12:57:58.236Z,99113.00
2023-04-27T13:00:25.223Z,99120.00
2023-04-27T13:02:52.925Z,99117.00
2023-04-27T13:05:20.730Z,99103.00
2023-04-27T13:07:47.723Z,99110.00
2023-04-27T13:10:14.732Z,99117.00
2023-04-27T13:12:41.653Z,99111.00
2023-04-27T13:15:09.556Z,99094.00
2023-04-27T13:17:36.477Z,99095.00
2023-04-27T13:20:03.646Z,99107.00
2023-04-27T13:22:30.566Z,99103.00
2023-04-27T13:24:57.476Z,99090.00
2023-04-27T13:27:24.376Z,99100.00
2023-04-27T13:29:51.525Z,99096.00
2023-04-27T13:32:18.448Z,99096.00
2023-04-27T13:34:45.381Z,99095.00
2023-04-27T13:37:12.269Z,99095.00
2023-04-27T13:39:39.126Z,99096.00
2023-04-27T13:42:06.135Z,99086.00
2023-04-27T13:44:33.041Z,99094.00
2023-04-27T13:47:00.041Z,99085.00
2023-04-27T13:49:27.008Z,99096.00
2023-04-27T13:51:53.912Z,99095.00
2023-04-27T13:54:21.114Z,99090.00
2023-04-27T13:56:48.074Z,99093.00
2023-04-27T13:59:15.258Z,99081.00
2023-04-27T14:01:42.406Z,99079.00
2023-04-27T14:04:09.456Z,99072.00
2023-04-27T14:06:36.505Z,99062.00
2023-04-27T14:09:03.545Z,99062.00
2023-04-27T14:11:30.440Z,99071.00
2023-04-27T14:13:57.329Z,99067.00
2023-04-27T14:16:24.280Z,99069.00
2023-04-27T14:18:51.180Z,99066.00
2023-04-27T14:21:18.073Z,99054.00
2023-04-27T14:23:44.973Z,99063.00
2023-04-27T14:26:11.875Z,99058.00
2023-04-27T14:28:38.761Z,99053.00
2023-04-27T14:31:05.762Z,99061.00
2023-04-27T14:33:32.659Z,99052.00
2023-04-27T14:35:59.993Z,99048.00
2023-04-27T14:38:26.863Z,99063.00
2023-04-27T14:40:53.769Z,99062.00
2023-04-27T14:43:20.863Z,99068.00
2023-04-27T14:45:52.733Z,99055.00
2023-04-27T14:48:22.503Z,99068.00
2023-04-27T14:50:49.486Z,99062.00
2023-04-27T14:53:16.436Z,99059.00
2023-04-27T14:55:43.301Z,99075.00
2023-04-27T14:58:10.222Z,99061.00
2023-04-27T15:00:37.191Z,99062.00
2023-04-27T15:03:04.437Z,99064.00
2023-04-27T15:05:31.435Z,99044.00
2023-04-27T15:07:58.290Z,99054.00
2023-04-27T15:10:25.177Z,99051.00
2023-04-27T15:12:52.041Z,99051.00
2023-04-27T15:15:18.929Z,99040.00
2023-04-27T15:17:45.949Z,99044.00
2023-04-27T15:20:13.074Z,99054.00
2023-04-27T15:22:40.017Z,99057.00
2023-04-27T15:25:07.329Z,99051.00
2023-04-27T15:27:34.235Z,99062.00
2023-04-27T15:30:01.142Z,99058.00
2023-04-27T15:32:27.990Z,99059.00
2023-04-27T15:34:54.924Z,99055.00
2023-04-27T15:37:21.868Z,99056.00
2023-04-27T15:39:48.824Z,99058.00
2023-04-27T15:42:15.715Z,99053.00
2023-04-27T15:44:42.608Z,99054.00
2023-04-27T15:47:09.556Z,99051.00
2023-04-27T15:49:42.745Z,99056.00
2023-04-27T15:52:20.839Z,99051.00
2023-04-27T15:54:47.753Z,99055.00
2023-04-27T15:57:14.658Z,99054.00
2023-04-27T15:59:41.699Z,99050.00
2023-04-27T16:02:08.662Z,99063.00
2023-04-27T16:04:35.639Z,99052.00
2023-04-27T16:07:02.580Z,99056.00
2023-04-27T16:09:29.452Z,99054.00
2023-04-27T16:11:56.459Z,99057.00
2023-04-27T16:14:23.366Z,99051.00
2023-04-27T16:16:50.329Z,99049.00
2023-04-27T16:19:18.202Z,99044.00
2023-04-27T16:21:45.308Z,99051.00
2023-04-27T16:24:12.308Z,99053.00
2023-04-27T16:26:39.262Z,99051.00
2023-04-27T16:29:06.159Z,99063.00
2023-04-27T16:31:33.080Z,99061.00
2023-04-27T16:33:59.989Z,99058.00
2023-04-27T16:36:26.877Z,99058.00
2023-04-27T16:38:53.791Z,99053.00
2023-04-27T16:41:21.041Z,99059.00
2023-04-27T16:43:49.219Z,99057.00
2023-04-27T16:46:16.226Z,99056.00
2023-04-27T16:48:43.292Z,99048.00
2023-04-27T16:51:10.250Z,99050.00
2023-04-27T16:53:37.334Z,99056.00
2023-04-27T16:56:04.576Z,99056.00
2023-04-27T16:58:31.564Z,99063.00
2023-04-27T17:00:58.514Z,99051.00
2023-04-27T17:03:25.543Z,99060.00
2023-04-27T17:05:52.818Z,99054.00
2023-04-27T17:08:19.721Z,99067.00
2023-04-27T17:10:46.601Z,99072.00
2023-04-27T17:13:13.478Z,99074.00
2023-04-27T17:15:40.617Z,99079.00
2023-04-27T17:18:07.708Z,99065.00
2023-04-27T17:20:34.683Z,99067.00
2023-04-27T17:23:01.593Z,99073.00
2023-04-27T17:25:28.580Z,99084.00
2023-04-27T17:27:55.601Z,99088.00
2023-04-27T17:30:22.730Z,99088.00
2023-04-27T17:32:49.715Z,99088.00
2023-04-27T17:35:16.695Z,99087.00
2023-04-27T17:37:43.577Z,99088.00
2023-04-27T17:40:11.278Z,99070.00
2023-04-27T17:42:38.286Z,99082.00
2023-04-27T17:45:05.812Z,99077.00
2023-04-27T17:47:32.737Z,99079.00
2023-04-27T17:49:59.606Z,99070.00
2023-04-27T17:52:26.476Z,99081.00
2023-04-27T17:54:53.349Z,99084.00
2023-04-27T17:57:20.253Z,99087.00
2023-04-27T17:59:47.112Z,99093.00
2023-04-27T18:02:14.059Z,99096.00
2023-04-27T18:04:41.060Z,99097.00
2023-04-27T18:07:08.001Z,99100.00
2023-04-27T18:09:34.941Z,99085.00
2023-04-27T18:12:01.808Z,99099.00
2023-04-27T18:14:28.744Z,99091.00
2023-04-27T18:16:55.783Z,99095.00
2023-04-27T18:19:22.966Z,99102.00
2023-04-27T18:21:49.902Z,99112.00
2023-04-27T18:24:16.782Z,99122.00
2023-04-27T18:26:43.665Z,99112.00
2023-04-27T18:29:10.564Z,99120.00
2023-04-27T18:31:37.445Z,99119.00
2023-04-27T18:34:04.380Z,99126.00
2023-04-27T18:36:31.268Z,99116.00
2023-04-27T18:38:58.157Z,99136.00
2023-04-27T18:41:25.144Z,99126.00
2023-04-27T18:43:52.090Z,99138.00
2023-04-27T18:46:19.108Z,99129.00
2023-04-27T18:48:46.036Z,99147.00
2023-04-27T18:51:12.921Z,99147.00
2023-04-27T18:53:39.846Z,99151.00
2023-04-27T18:56:08.031Z,99147.00
2023-04-27T18:58:35.828Z,99145.00
2023-04-27T19:01:02.825Z,99153.00
2023-04-27T19:03:29.935Z,99154.00
2023-04-27T19:05:56.952Z,99159.00
2023-04-27T19:08:23.885Z,99167.00
2023-04-27T19:10:53.849Z,99167.00
2023-04-27T19:13:20.768Z,99165.00
2023-04-27T19:15:47.700Z,99162.00
2023-04-27T19:18:14.596Z,99164.00
2023-04-27T19:20:41.583Z,99169.00
2023-04-27T19:23:08.600Z,99179.00
2023-04-27T19:25:35.559Z,99173.00
2023-04-27T19:28:02.465Z,99183.00
2023-04-27T19:30:29.479Z,99186.00
2023-04-27T19:32:56.507Z,99179.00
2023-04-27T19:35:23.522Z,99183.00
2023-04-27T19:37:50.610Z,99194.00
2023-04-27T19:40:17.700Z,99194.00
2023-04-27T19:42:44.606Z,99187.00
2023-04-27T19:45:11.748Z,99198.00
2023-04-27T19:47:38.680Z,99196.00
2023-04-27T19:50:06.377Z,99205.00
2023-04-27T19:52:33.288Z,99204.00
2023-04-27T19:55:00.295Z,99209.00
2023-04-27T19:57:27.264Z,99209.00
2023-04-27T19:59:54.161Z,99210.00
2023-04-27T20:02:21.294Z,99218.00
2023-04-27T20:04:48.393Z,99225.00
2023-04-27T20:07:15.681Z,99220.00
2023-04-27T20:09:42.633Z,99224.00
2023-04-27T20:12:19.378Z,99226.00
2023-04-27T20:14:56.139Z,99223.00
2023-04-27T20:17:23.108Z,99221.00
2023-04-27T20:19:50.021Z,99208.00
2023-04-27T20:22:16.962Z,99223.00
2023-04-27T20:24:43.950Z,99215.00
2023-04-27T20:27:10.914Z,99222.00
2023-04-27T20:29:37.884Z,99224.00
2023-04-27T20:32:05.357Z,99218.00
2023-04-27T20:34:32.470Z,99225.00
2023-04-27T20:36:59.388Z,99218.00
2023-04-27T20:39:26.244Z,99232.00
2023-04-27T20:41:53.123Z,99226.00
2023-04-27T20:44:20.036Z,99241.00
2023-04-27T20:46:46.910Z,99234.00
2023-04-27T20:49:19.019Z,99243.00
2023-04-27T20:51:48.781Z,99232.00
2023-04-27T20:54:15.785Z,99231.00
2023-04-27T20:56:42.812Z,99228.00
2023-04-27T20:59:09.722Z,99231.00
2023-04-27T21:01:36.664Z,99235.00
2023-04-27T21:04:03.774Z,99227.00
2023-04-27T21:06:30.887Z,99224.00
2023-04-27T21:08:57.832Z,99240.00
2023-04-27T21:11:25.195Z,99240.00
2023-04-27T21:13:52.714Z,99218.00
2023-04-27T21:16:19.654Z,99228.00
2023-04-27T21:18:46.585Z,99221.00
2023-04-27T21:21:13.688Z,99241.00
2023-04-27T21:23:40.602Z,99236.00
2023-04-27T21:26:07.727Z,99234.00
2023-04-27T21:28:34.671Z,99229.00
2023-04-27T21:31:01.652Z,99231.00
2023-04-27T21:33:28.640Z,99228.00
2023-04-27T21:35:55.512Z,99230.00
2023-04-27T21:38:22.394Z,99227.00
2023-04-27T21:40:49.218Z,99232.00
2023-04-27T21:43:16.071Z,99244.00
2023-04-27T21:45:42.989Z,99237.00
2023-04-27T21:48:09.923Z,99254.00
2023-04-27T21:50:36.861Z,99256.00
2023-04-27T21:53:03.860Z,99241.00
2023-04-27T21:55:30.743Z,99257.00
2023-04-27T21:57:57.602Z,99254.00
2023-04-27T22:00:24.583Z,99256.00
2023-04-27T22:02:51.723Z,99245.00
2023-04-27T22:05:19.665Z,99254.00
2023-04-27T22:07:47.057Z,99256.00
2023-04-27T22:10:13.965Z,99247.00
2023-04-27T22:12:40.922Z,99252.00
2023-04-27T22:15:08.674Z,99256.00
2023-04-27T22:17:35.629Z,99261.00
2023-04-27T22:20:02.612Z,99258.00
2023-04-27T22:22:29.514Z,99262.00
2023-04-27T22:24:56.398Z,99251.00
2023-04-27T22:27:24.765Z,99265.00
2023-04-27T22:29:53.186Z,99274.00
2023-04-27T22:32:20.190Z,99266.00
2023-04-27T22:34:47.165Z,99271.00
2023-04-27T22:37:14.072Z,99277.00
2023-04-27T22:39:41.008Z,99268.00
2023-04-27T22:42:07.945Z,99279.00
2023-04-27T22:44:34.901Z,99271.00
2023-04-27T22:47:01.853Z,99281.00
2023-04-27T22:49:28.955Z,99270.00
2023-04-27T22:51:55.897Z,99273.00
2023-04-27T22:54:23.149Z,99274.00
2023-04-27T22:56:50.297Z,99278.00
2023-04-27T22:59:17.205Z,99284.00
2023-04-27T23:01:44.190Z,99266.00
2023-04-27T23:04:11.260Z,99278.00
2023-04-27T23:06:38.320Z,99267.00
2023-04-27T23:09:05.290Z,99282.00
2023-04-27T23:11:32.195Z,99269.00
2023-04-27T23:13:59.159Z,99286.00
2023-04-27T23:16:26.279Z,99288.00
2023-04-27T23:18:53.175Z,99288.00
2023-04-27T23:21:20.077Z,99286.00
2023-04-27T23:23:47.018Z,99289.00
2023-04-27T23:26:14.666Z,99271.00
2023-04-27T23:28:41.758Z,99287.00
2023-04-27T23:31:09.415Z,99285.00
2023-04-27T23:33:36.399Z,99278.00
2023-04-27T23:36:03.615Z,99280.00
2023-04-27T23:38:30.480Z,99270.00
2023-04-27T23:40:57.366Z,99291.00
2023-04-27T23:43:24.301Z,99280.00
2023-04-27T23:45:51.795Z,99307.00
2023-04-27T23:48:19.258Z,99289.00
2023-04-27T23:50:46.171Z,99296.00
2023-04-27T23:53:13.055Z,99284.00
2023-04-27T23:55:40.047Z,99308.00
2023-04-27T23:58:06.977Z,99308.00
